This is the latest recevied weather packets stored in our database for station/object KI4NG. If no packets are shown the sender has not sent any weather packets the latest 1 day(s).
| Time | Temp. | Humidity | Pressure | Rain* | Wind** | Luminosity | Snow |
|---|---|---|---|---|---|---|---|
| 1778011378 | 21.67° C | 59% | 1012.9 hPa | 0 mm | 3.13 m/s, 147° | 452 W/m² | - |
| 1778011073 | 20.56° C | 60% | 1013 hPa | 0 mm | 1.79 m/s, 272° | 801 W/m² | - |
| 1778010771 | 20.56° C | 61% | 1013.1 hPa | 0 mm | 2.68 m/s, 145° | 319 W/m² | - |
| 1778010468 | 20° C | 63% | 1013.1 hPa | 0 mm | 1.79 m/s, 174° | 403 W/m² | - |
| 1778010164 | 20° C | 62% | 1013.1 hPa | 0 mm | 3.13 m/s, 183° | 248 W/m² | - |
| 1778009860 | 20.56° C | 62% | 1013.1 hPa | 0 mm | 4.02 m/s, 195° | 249 W/m² | - |
| 1778009558 | 20.56° C | 61% | 1013.1 hPa | 0 mm | 2.24 m/s, 125° | 314 W/m² | - |
| 1778009256 | 21.11° C | 61% | 1013.1 hPa | 0 mm | 4.47 m/s, 136° | 370 W/m² | - |
| 1778008954 | 21.11° C | 63% | 1013.5 hPa | 0 mm | 2.24 m/s, 228° | 847 W/m² | - |
| 1778008652 | 21.11° C | 63% | 1013.3 hPa | 0 mm | 2.68 m/s, 190° | 510 W/m² | - |
| 1778008350 | 21.11° C | 61% | 1013.4 hPa | 0 mm | 3.13 m/s, 239° | 500 W/m² | - |
| 1778008046 | 20.56° C | 60% | 1013.2 hPa | 0 mm | 3.13 m/s, 123° | 422 W/m² | - |
| 1778007746 | 21.11° C | 61% | 1013.3 hPa | 0 mm | 3.13 m/s, 189° | 367 W/m² | - |
| 1778007442 | 21.11° C | 61% | 1013.5 hPa | 0 mm | 1.79 m/s, 244° | 390 W/m² | - |
| 1778007139 | 20.56° C | 61% | 1013.7 hPa | 0 mm | 2.68 m/s, 215° | 404 W/m² | - |
| 1778006835 | 20.56° C | 60% | 1013.6 hPa | 0 mm | 2.24 m/s, 194° | 255 W/m² | - |
| 1778006533 | 21.11° C | 60% | 1013.7 hPa | 0 mm | 2.68 m/s, 199° | 223 W/m² | - |
| 1778006229 | 21.11° C | 60% | 1013.6 hPa | 0 mm | 3.13 m/s, 170° | 310 W/m² | - |
| 1778005927 | 21.11° C | 59% | 1013.6 hPa | 0 mm | 3.13 m/s, 263° | 421 W/m² | - |
| 1778005622 | 21.11° C | 60% | 1013.6 hPa | 0 mm | 2.24 m/s, 150° | 372 W/m² | - |
| 1778005320 | 21.11° C | 58% | 1013.6 hPa | 0 mm | 2.68 m/s, 190° | 361 W/m² | - |
| 1778005016 | 21.11° C | 55% | 1013.6 hPa | 0 mm | 3.58 m/s, 237° | 393 W/m² | - |
| 1778004714 | 21.11° C | 56% | 1013.6 hPa | 0 mm | 2.24 m/s, 183° | 567 W/m² | - |
| 1778004410 | 20.56° C | 56% | 1013.9 hPa | 0 mm | 2.68 m/s, 258° | 490 W/m² | - |
| 1778004108 | 20.56° C | 58% | 1013.6 hPa | 0 mm | 2.68 m/s, 179° | 400 W/m² | - |
* Rain latest hour (hover to see other rain measurements)
** Current wind speed in m/s (hover to see current wind gust speed)